createdAt,value
2022-08-14T00:04:51.647Z,96704.03
2022-08-14T00:10:50.284Z,96696.72
2022-08-14T00:15:58.823Z,96691.41
2022-08-14T00:21:19.849Z,96688.53
2022-08-14T00:26:49.012Z,96682.81
2022-08-14T00:32:52.249Z,96674.06
2022-08-14T00:37:56.089Z,96668.94
2022-08-14T00:43:17.763Z,96668.75
2022-08-14T00:48:38.785Z,96666.50
2022-08-14T00:54:05.294Z,96671.00
2022-08-14T00:59:37.739Z,96665.72
2022-08-14T01:05:01.531Z,96665.56
2022-08-14T01:10:23.467Z,96663.50
2022-08-14T01:16:01.159Z,96657.78
2022-08-14T01:21:38.775Z,96660.88
2022-08-14T01:27:07.594Z,96659.50
2022-08-14T01:32:30.024Z,96659.28
2022-08-14T01:37:56.400Z,96661.13
2022-08-14T01:43:18.924Z,96664.81
2022-08-14T01:48:44.385Z,96672.13
2022-08-14T01:54:14.219Z,96656.88
2022-08-14T01:59:37.817Z,96654.41
2022-08-14T02:05:00.893Z,96646.00
2022-08-14T02:10:26.299Z,96651.31
2022-08-14T02:15:50.125Z,96647.47
2022-08-14T02:21:12.544Z,96642.16
2022-08-14T02:28:18.712Z,96649.28
2022-08-14T02:32:30.142Z,96651.16
2022-08-14T02:37:54.656Z,96645.88
2022-08-14T02:43:15.332Z,96645.88
2022-08-14T02:49:01.876Z,96639.13
2022-08-14T02:54:23.451Z,96627.50
2022-08-14T02:59:43.978Z,96625.72
2022-08-14T03:05:05.841Z,96617.34
2022-08-14T03:10:33.199Z,96625.75
2022-08-14T03:15:57.782Z,96617.16
2022-08-14T03:21:21.462Z,96620.63
2022-08-14T03:26:44.900Z,96619.22
2022-08-14T03:32:06.479Z,96617.34
2022-08-14T03:37:51.774Z,96615.72
2022-08-14T03:43:10.715Z,96612.06
2022-08-14T03:48:31.656Z,96606.56
2022-08-14T03:54:04.044Z,96601.28
2022-08-14T03:59:24.979Z,96597.19
2022-08-14T04:04:49.429Z,96599.25
2022-08-14T04:10:11.018Z,96602.09
2022-08-14T04:15:56.335Z,96604.75
2022-08-14T04:21:17.232Z,96596.81
2022-08-14T04:26:42.409Z,96591.91
2022-08-14T04:33:00.980Z,96595.78
2022-08-14T04:38:10.601Z,96601.69
2022-08-14T04:43:47.910Z,96606.59
2022-08-14T04:49:15.279Z,96608.22
2022-08-14T04:54:35.903Z,96605.38
2022-08-14T04:59:56.921Z,96610.47
2022-08-14T05:05:17.589Z,96605.16
2022-08-14T05:10:44.227Z,96593.13
2022-08-14T05:16:06.809Z,96586.78
2022-08-14T05:22:00.405Z,96579.19
2022-08-14T05:27:11.322Z,96584.91
2022-08-14T05:32:32.006Z,96587.38
2022-08-14T05:37:53.457Z,96589.41
2022-08-14T05:43:16.199Z,96582.06
2022-08-14T05:48:42.905Z,96575.16
2022-08-14T05:54:13.553Z,96576.19
2022-08-14T05:59:45.006Z,96570.69
2022-08-14T06:05:05.601Z,96568.59
2022-08-14T06:10:30.690Z,96574.47
2022-08-14T06:15:52.039Z,96571.41
2022-08-14T06:21:15.841Z,96552.28
2022-08-14T06:26:38.230Z,96557.34
2022-08-14T06:32:38.664Z,96551.56
2022-08-14T06:37:58.595Z,96545.34
2022-08-14T06:43:21.014Z,96551.59
2022-08-14T06:48:42.993Z,96543.03
2022-08-14T06:54:03.865Z,96537.19
2022-08-14T06:59:24.447Z,96536.72
2022-08-14T07:05:05.534Z,96533.91
2022-08-14T07:10:26.804Z,96529.25
2022-08-14T07:15:50.511Z,96527.38
2022-08-14T07:21:16.133Z,96530.94
2022-08-14T07:26:38.788Z,96527.03
2022-08-14T07:32:01.654Z,96525.28
2022-08-14T07:37:22.314Z,96516.53
2022-08-14T07:42:43.062Z,96524.63
2022-08-14T07:48:07.449Z,96519.56
2022-08-14T07:53:39.280Z,96512.94
2022-08-14T07:59:01.381Z,96505.19
2022-08-14T08:04:27.350Z,96513.16
2022-08-14T08:09:53.491Z,96501.69
2022-08-14T08:15:15.038Z,96500.97
2022-08-14T08:20:40.875Z,96508.06
2022-08-14T08:26:12.791Z,96507.47
2022-08-14T08:31:51.089Z,96514.78
2022-08-14T08:37:14.457Z,96515.03
2022-08-14T08:42:41.495Z,96511.34
2022-08-14T08:48:17.942Z,96511.00
2022-08-14T08:53:41.471Z,96503.69
2022-08-14T08:59:03.526Z,96497.88
2022-08-14T09:04:26.292Z,96496.38
2022-08-14T09:09:54.059Z,96487.59
2022-08-14T09:15:20.413Z,96487.00
2022-08-14T09:20:49.446Z,96488.63
2022-08-14T09:26:21.182Z,96484.22
2022-08-14T09:31:53.342Z,96478.34
2022-08-14T09:37:49.628Z,96466.75
2022-08-14T09:44:04.649Z,96457.38
2022-08-14T09:49:40.639Z,96455.41
2022-08-14T09:55:02.678Z,96449.72
2022-08-14T10:00:42.427Z,96432.38
2022-08-14T10:06:19.476Z,96432.03
2022-08-14T10:11:43.595Z,96429.16
2022-08-14T10:17:08.700Z,96423.50
2022-08-14T10:23:21.819Z,96421.72
2022-08-14T10:29:03.678Z,96411.28
2022-08-14T10:34:14.132Z,96396.50
2022-08-14T10:39:36.546Z,96389.03
2022-08-14T10:44:57.763Z,96387.91
2022-08-14T10:50:32.929Z,96389.78
2022-08-14T10:55:59.402Z,96386.69
2022-08-14T11:01:31.301Z,96383.72
2022-08-14T11:06:59.441Z,96373.94
2022-08-14T11:12:33.770Z,96368.13
2022-08-14T11:18:01.149Z,96358.81
2022-08-14T11:23:28.458Z,96356.94
2022-08-14T11:29:02.809Z,96347.28
2022-08-14T11:34:30.193Z,96349.50
2022-08-14T11:39:54.138Z,96349.13
2022-08-14T11:45:16.936Z,96353.25
2022-08-14T11:50:39.494Z,96354.00
2022-08-14T11:56:03.810Z,96346.63
2022-08-14T12:01:31.228Z,96333.44
2022-08-14T12:06:55.977Z,96328.91
2022-08-14T12:12:36.191Z,96317.13
2022-08-14T12:17:59.344Z,96310.59
2022-08-14T12:23:23.084Z,96306.53
2022-08-14T12:29:00.160Z,96305.91
2022-08-14T12:34:24.149Z,96316.50
2022-08-14T12:39:45.426Z,96306.28
2022-08-14T12:45:11.109Z,96286.59
2022-08-14T12:50:42.086Z,96284.28
2022-08-14T12:56:21.293Z,96277.06
2022-08-14T13:02:01.761Z,96264.97
2022-08-14T13:07:32.075Z,96256.25
2022-08-14T13:13:15.490Z,96245.69
2022-08-14T13:18:41.282Z,96249.69
2022-08-14T13:24:12.874Z,96232.56
2022-08-14T13:29:43.858Z,96232.81
2022-08-14T13:35:12.085Z,96236.69
2022-08-14T13:40:37.369Z,96231.44
2022-08-14T13:46:01.466Z,96219.78
2022-08-14T13:51:26.706Z,96214.75
2022-08-14T13:56:51.469Z,96219.28
2022-08-14T14:02:13.431Z,96208.06
2022-08-14T14:07:53.601Z,96205.59
2022-08-14T14:13:17.757Z,96209.66
2022-08-14T14:18:42.455Z,96201.13
2022-08-14T14:24:04.777Z,96191.84
2022-08-14T14:29:26.534Z,96188.72
2022-08-14T14:34:53.400Z,96185.94
2022-08-14T14:40:54.372Z,96180.72
2022-08-14T14:45:59.698Z,96178.19
2022-08-14T14:51:22.083Z,96169.88
2022-08-14T14:56:47.418Z,96172.81
2022-08-14T15:02:30.936Z,96178.56
2022-08-14T15:07:52.872Z,96171.41
2022-08-14T15:13:13.583Z,96167.94
2022-08-14T15:18:36.889Z,96159.69
2022-08-14T15:24:01.224Z,96147.09
2022-08-14T15:29:21.910Z,96155.47
2022-08-14T15:34:51.274Z,96151.84
2022-08-14T15:40:22.092Z,96152.81
2022-08-14T15:45:43.214Z,96144.81
2022-08-14T15:51:04.860Z,96138.13
2022-08-14T15:56:32.922Z,96142.16
2022-08-14T16:02:04.211Z,96133.38
2022-08-14T16:07:27.288Z,96134.44
2022-08-14T16:12:50.496Z,96137.94
2022-08-14T16:18:18.594Z,96130.91
2022-08-14T16:23:44.578Z,96130.13
2022-08-14T16:29:07.713Z,96124.16
2022-08-14T16:34:45.520Z,96125.69
2022-08-14T16:40:12.776Z,96116.34
2022-08-14T16:45:43.395Z,96116.78
2022-08-14T16:51:06.719Z,96115.94
2022-08-14T16:56:36.178Z,96117.72
2022-08-14T17:02:00.793Z,96113.91
2022-08-14T17:07:26.523Z,96114.09
2022-08-14T17:12:48.541Z,96103.31
2022-08-14T17:18:22.134Z,96106.94
2022-08-14T17:23:44.656Z,96109.22
2022-08-14T17:29:08.494Z,96110.50
2022-08-14T17:34:45.599Z,96098.25
2022-08-14T17:40:19.042Z,96106.53
2022-08-14T17:45:41.873Z,96093.22
2022-08-14T17:51:03.885Z,96091.88
2022-08-14T17:56:30.901Z,96084.94
2022-08-14T18:01:53.169Z,96082.59
2022-08-14T18:08:31.494Z,96081.63
2022-08-14T18:13:01.756Z,96091.28
2022-08-14T18:18:22.796Z,96091.75
2022-08-14T18:23:43.641Z,96092.47
2022-08-14T18:29:14.659Z,96084.97
2022-08-14T18:34:38.127Z,96083.50
2022-08-14T18:40:18.060Z,96080.84
2022-08-14T18:45:58.935Z,96090.44
2022-08-14T18:51:45.175Z,96093.38
2022-08-14T18:57:09.013Z,96099.56
2022-08-14T19:02:42.903Z,96087.19
2022-08-14T19:08:28.204Z,96105.00
2022-08-14T19:13:51.761Z,96103.53
2022-08-14T19:19:14.275Z,96106.31
2022-08-14T19:24:34.866Z,96100.09
2022-08-14T19:30:20.398Z,96094.78
2022-08-14T19:35:55.089Z,96094.34
2022-08-14T19:41:34.645Z,96088.91
2022-08-14T19:47:00.387Z,96094.69
2022-08-14T19:52:30.044Z,96090.75
2022-08-14T19:57:58.200Z,96102.63
2022-08-14T20:03:23.903Z,96102.75
2022-08-14T20:10:58.563Z,96093.97
2022-08-14T20:14:30.721Z,96096.28
2022-08-14T20:19:51.638Z,96095.44
2022-08-14T20:25:22.945Z,96099.00
2022-08-14T20:30:44.035Z,96108.03
2022-08-14T20:36:15.387Z,96099.25
2022-08-14T20:41:48.945Z,96103.19
2022-08-14T20:47:16.979Z,96100.31
2022-08-14T20:52:40.483Z,96088.84
2022-08-14T20:58:09.875Z,96087.53
2022-08-14T21:03:58.591Z,96075.63
2022-08-14T21:10:05.813Z,96080.44
2022-08-14T21:15:11.261Z,96075.53
2022-08-14T21:20:42.963Z,96080.66
2022-08-14T21:26:07.516Z,96074.38
2022-08-14T21:31:30.162Z,96078.53
2022-08-14T21:36:52.997Z,96077.16
2022-08-14T21:42:13.760Z,96064.84
2022-08-14T21:47:37.960Z,96073.25
2022-08-14T21:53:05.421Z,96076.53
2022-08-14T21:58:54.146Z,96078.31
2022-08-14T22:04:33.260Z,96072.06
2022-08-14T22:09:54.816Z,96076.34
2022-08-14T22:15:18.398Z,96075.53
2022-08-14T22:20:41.145Z,96062.28
2022-08-14T22:26:01.712Z,96063.69
2022-08-14T22:31:24.319Z,96063.53
2022-08-14T22:36:55.992Z,96059.63
2022-08-14T22:42:20.902Z,96060.00
2022-08-14T22:47:43.999Z,96054.94
2022-08-14T22:53:06.794Z,96052.88
2022-08-14T22:58:31.434Z,96045.59
2022-08-14T23:03:55.501Z,96044.84
2022-08-14T23:09:36.238Z,96043.03
2022-08-14T23:15:00.312Z,96047.94
2022-08-14T23:20:22.993Z,96045.19
2022-08-14T23:25:58.881Z,96044.69
2022-08-14T23:31:34.426Z,96042.28
2022-08-14T23:36:57.547Z,96040.94
2022-08-14T23:42:18.194Z,96039.81
2022-08-14T23:47:51.605Z,96031.34
2022-08-14T23:53:28.567Z,96018.50
2022-08-14T23:59:07.048Z,96012.47
